Time;durP1;ratioP1;P1;durP2;ratioP2;P2;SDS_P1;SDS_P2;PMS_P1;PMS_P2;Temp;Humidity;BMP_temperature;BMP_pressure;BME280_temperature;BME280_humidity;BME280_pressure;Samples;Min_cycle;Max_cycle;Signal;HPM_P1;HPM_P2
2023/08/03 00:00:57;;;;;;;5.90;2.30;;;;;;;19.91;100.00;100419.94;105211;1264;73800;-44
2023/08/03 00:03:24;;;;;;;2.40;2.20;;;;;;;19.83;100.00;100433.02;105150;1267;65299;-44
2023/08/03 00:05:51;;;;;;;3.10;2.30;;;;;;;19.74;100.00;100438.22;105145;1264;72658;-44
2023/08/03 00:08:18;;;;;;;3.30;2.30;;;;;;;19.66;100.00;100444.62;105096;1268;62618;-43
2023/08/03 00:10:45;;;;;;;3.60;2.60;;;;;;;19.59;100.00;100454.68;105129;1263;60382;-44
2023/08/03 00:13:12;;;;;;;10.10;2.50;;;;;;;19.51;100.00;100464.20;105175;1264;73767;-44
2023/08/03 00:15:39;;;;;;;8.30;2.50;;;;;;;19.43;100.00;100465.38;105601;1260;65489;-44
2023/08/03 00:18:06;;;;;;;3.60;2.20;;;;;;;19.35;100.00;100464.56;105620;1257;73225;-44
2023/08/03 00:20:33;;;;;;;3.00;2.40;;;;;;;19.28;100.00;100459.86;105643;1260;61724;-44
2023/08/03 00:23:00;;;;;;;3.60;2.40;;;;;;;19.22;100.00;100456.17;105617;1257;60385;-44
2023/08/03 00:25:30;;;;;;;2.00;1.90;;;;;;;19.16;100.00;100454.55;105543;1257;73127;-44
2023/08/03 00:27:57;;;;;;;2.10;2.00;;;;;;;19.11;100.00;100447.15;105613;1260;65293;-44
2023/08/03 00:30:25;;;;;;;5.30;2.20;;;;;;;19.07;100.00;100442.79;105461;1257;72596;-45
2023/08/03 00:32:52;;;;;;;2.50;2.30;;;;;;;19.05;100.00;100436.09;105515;1257;61829;-45
2023/08/03 00:35:19;;;;;;;1.90;1.80;;;;;;;19.05;100.00;100427.02;105605;1257;60215;-44
2023/08/03 00:37:46;;;;;;;2.00;1.90;;;;;;;19.05;100.00;100411.46;105571;1260;73135;-44
2023/08/03 00:40:14;;;;;;;2.10;2.00;;;;;;;19.02;100.00;100407.58;105923;1257;66331;-44
2023/08/03 00:42:41;;;;;;;1.90;1.80;;;;;;;18.99;100.00;100393.59;105569;1257;72860;-44
2023/08/03 00:45:10;;;;;;;2.10;2.00;;;;;;;18.95;100.00;100383.42;105534;1257;61843;-45
2023/08/03 00:47:40;;;;;;;2.50;2.30;;;;;;;18.91;100.00;100378.06;105514;1263;59538;-44
2023/08/03 00:50:08;;;;;;;4.80;2.20;;;;;;;18.87;100.00;100377.61;105626;1258;72953;-44
2023/08/03 00:52:35;;;;;;;2.80;2.60;;;;;;;18.81;100.00;100376.87;105599;1260;65576;-44
2023/08/03 00:55:03;;;;;;;2.30;2.20;;;;;;;18.76;100.00;100372.73;105744;1257;72748;-44
2023/08/03 00:57:30;;;;;;;2.40;2.20;;;;;;;18.75;100.00;100365.84;105633;1257;62811;-45
2023/08/03 00:59:57;;;;;;;3.70;2.10;;;;;;;18.73;100.00;100349.53;105640;1256;60305;-44
2023/08/03 01:02:24;;;;;;;4.20;2.30;;;;;;;18.71;100.00;100335.15;105573;1257;72931;-44
2023/08/03 01:04:51;;;;;;;5.10;2.40;;;;;;;18.67;100.00;100319.40;105570;1260;66185;-44
2023/08/03 01:07:21;;;;;;;3.20;2.30;;;;;;;18.64;100.00;100306.66;105712;1257;73326;-44
2023/08/03 01:09:48;;;;;;;5.10;2.20;;;;;;;18.60;100.00;100296.39;105704;1260;62554;-44
2023/08/03 01:12:16;;;;;;;2.40;2.20;;;;;;;18.55;100.00;100290.67;105572;1257;60303;-45
2023/08/03 01:14:44;;;;;;;5.70;2.50;;;;;;;18.52;100.00;100283.52;105603;1258;73107;-44
2023/08/03 01:17:11;;;;;;;2.40;2.30;;;;;;;18.50;100.00;100275.79;105647;1257;66081;-44
2023/08/03 01:19:39;;;;;;;6.30;2.40;;;;;;;18.45;100.00;100265.04;105325;1257;72659;-44
2023/08/03 01:22:06;;;;;;;6.80;2.70;;;;;;;18.43;100.00;100258.88;105521;1263;61885;-44
2023/08/03 01:24:34;;;;;;;2.90;2.70;;;;;;;18.41;100.00;100250.24;105321;1257;60657;-44
2023/08/03 01:27:01;;;;;;;3.10;2.40;;;;;;;18.38;100.00;100243.73;105510;1257;73052;-44
2023/08/03 01:29:28;;;;;;;6.80;2.50;;;;;;;18.36;100.00;100239.15;105482;1264;65632;-44
2023/08/03 01:31:56;;;;;;;2.40;2.20;;;;;;;18.33;100.00;100237.02;105600;1256;73214;-44
2023/08/03 01:34:24;;;;;;;4.70;2.60;;;;;;;18.31;100.00;100231.70;105625;1260;61947;-44
2023/08/03 01:36:52;;;;;;;4.90;2.50;;;;;;;18.31;100.00;100230.50;105530;1257;61103;-44
2023/08/03 01:39:20;;;;;;;2.90;2.50;;;;;;;18.30;100.00;100222.86;105580;1260;73186;-44
2023/08/03 01:41:48;;;;;;;5.30;2.60;;;;;;;18.28;100.00;100221.05;105599;1257;65600;-44
2023/08/03 01:44:29;;;;;;;6.50;2.60;;;;;;;18.24;100.00;100213.92;105586;1257;72656;-44
2023/08/03 01:46:57;;;;;;;2.40;2.00;;;;;;;18.20;100.00;100213.13;105605;1260;62602;-44
2023/08/03 01:49:26;;;;;;;3.80;2.40;;;;;;;18.16;100.00;100208.25;105740;1257;60359;-44
2023/08/03 01:51:53;;;;;;;2.50;2.30;;;;;;;18.13;100.00;100206.17;105564;1260;73008;-45
2023/08/03 01:54:20;;;;;;;3.90;2.70;;;;;;;18.09;100.00;100204.47;105599;1260;65512;-46
2023/08/03 01:56:46;;;;;;;2.50;2.30;;;;;;;18.05;100.00;100203.41;105277;1257;72728;-45
2023/08/03 01:59:13;;;;;;;2.40;2.30;;;;;;;18.02;100.00;100203.42;105508;1261;61762;-46
2023/08/03 02:01:40;;;;;;;3.10;2.90;;;;;;;17.98;100.00;100201.53;105548;1257;60078;-44
2023/08/03 02:04:08;;;;;;;2.80;2.50;;;;;;;17.94;100.00;100203.63;105600;1260;73146;-44
2023/08/03 02:06:38;;;;;;;3.50;2.60;;;;;;;17.92;100.00;100205.33;105666;1260;66480;-44
2023/08/03 02:09:05;;;;;;;2.70;2.60;;;;;;;17.90;100.00;100205.60;105560;1257;71767;-44
2023/08/03 02:11:33;;;;;;;2.90;2.70;;;;;;;17.88;100.00;100204.48;105560;1257;61970;-44
2023/08/03 02:14:01;;;;;;;7.80;3.20;;;;;;;17.86;100.00;100196.90;105617;1260;60328;-44
2023/08/03 02:16:28;;;;;;;3.00;2.80;;;;;;;17.85;100.00;100198.02;105780;1256;72930;-44
2023/08/03 02:18:55;;;;;;;2.80;2.60;;;;;;;17.82;100.00;100200.26;105591;1260;64576;-44
2023/08/03 02:21:22;;;;;;;5.50;2.90;;;;;;;17.79;100.00;100200.73;105591;1257;72439;-44
2023/08/03 02:23:49;;;;;;;4.20;3.20;;;;;;;17.75;100.00;100201.83;105719;1259;61032;-44
2023/08/03 02:26:16;;;;;;;3.30;3.10;;;;;;;17.72;100.00;100198.66;105709;1256;59724;-45
2023/08/03 02:28:43;;;;;;;6.80;2.80;;;;;;;17.71;100.00;100196.81;105655;1257;72923;-44
2023/08/03 02:31:11;;;;;;;4.00;3.00;;;;;;;17.72;100.00;100196.79;105659;1257;65629;-44
2023/08/03 02:33:40;;;;;;;4.00;2.80;;;;;;;17.73;100.00;100195.85;105531;1257;72688;-44
2023/08/03 02:36:08;;;;;;;3.70;3.40;;;;;;;17.73;100.00;100192.34;105328;1257;61911;-45
2023/08/03 02:38:35;;;;;;;4.40;2.80;;;;;;;17.74;100.00;100189.66;105618;1256;61163;-45
2023/08/03 02:41:03;;;;;;;3.10;2.90;;;;;;;17.75;100.00;100182.80;105575;1257;73050;-44
2023/08/03 02:43:31;;;;;;;6.40;2.90;;;;;;;17.78;100.00;100178.30;105590;1257;65580;-44
2023/08/03 02:45:58;;;;;;;7.10;3.40;;;;;;;17.77;100.00;100177.82;105506;1262;72682;-44
2023/08/03 02:48:26;;;;;;;5.10;3.10;;;;;;;17.77;100.00;100176.58;105715;1261;62114;-44
2023/08/03 02:50:54;;;;;;;10.50;3.40;;;;;;;17.80;100.00;100175.21;105655;1256;60289;-45
2023/08/03 02:53:21;;;;;;;11.90;3.60;;;;;;;17.83;100.00;100174.23;105601;1258;73130;-44
2023/08/03 02:55:50;;;;;;;3.30;3.00;;;;;;;17.85;100.00;100175.17;105584;1260;65591;-45
2023/08/03 02:58:17;;;;;;;3.60;2.80;;;;;;;17.87;100.00;100179.25;105537;1261;72690;-44
2023/08/03 03:00:44;;;;;;;7.20;3.20;;;;;;;17.88;100.00;100180.59;105504;1262;61992;-45
2023/08/03 03:03:12;;;;;;;4.20;3.40;;;;;;;17.89;100.00;100179.63;105651;1257;60447;-44
2023/08/03 03:05:39;;;;;;;4.10;3.10;;;;;;;17.91;100.00;100178.98;105589;1260;73963;-44
2023/08/03 03:08:07;;;;;;;4.90;2.80;;;;;;;17.93;100.00;100181.51;105687;1257;64518;-45
2023/08/03 03:10:34;;;;;;;5.40;2.90;;;;;;;17.96;100.00;100185.56;105691;1260;72911;-45
2023/08/03 03:13:01;;;;;;;3.40;3.20;;;;;;;17.98;100.00;100186.31;105504;1263;61857;-44
2023/08/03 03:15:29;;;;;;;3.20;2.80;;;;;;;18.02;100.00;100188.38;105674;1256;61035;-44
2023/08/03 03:17:56;;;;;;;3.50;3.00;;;;;;;18.05;100.00;100187.54;105631;1258;73832;-44
2023/08/03 03:20:24;;;;;;;5.30;3.00;;;;;;;18.10;100.00;100186.62;105622;1260;66306;-44
2023/08/03 03:22:52;;;;;;;3.30;2.90;;;;;;;18.15;100.00;100187.52;105592;1257;73138;-44
2023/08/03 03:25:19;;;;;;;3.00;2.20;;;;;;;18.22;100.00;100188.21;105576;1260;61006;-44
2023/08/03 03:27:47;;;;;;;2.20;2.10;;;;;;;18.31;100.00;100191.41;105591;1257;60450;-45
2023/08/03 03:30:16;;;;;;;2.90;2.60;;;;;;;18.41;100.00;100192.43;105632;1260;73968;-44
2023/08/03 03:32:45;;;;;;;4.10;2.90;;;;;;;18.52;100.00;100190.91;105616;1257;64846;-45
2023/08/03 03:35:12;;;;;;;2.40;2.30;;;;;;;18.61;100.00;100189.02;105616;1257;72485;-45
2023/08/03 03:37:39;;;;;;;1.90;1.80;;;;;;;18.71;100.00;100189.71;105740;1260;62105;-45
2023/08/03 03:40:07;;;;;;;3.00;2.20;;;;;;;18.83;100.00;100195.13;105598;1257;60476;-45
2023/08/03 03:42:37;;;;;;;4.50;2.20;;;;;;;18.96;100.00;100205.62;105557;1260;73709;-44
2023/08/03 03:45:06;;;;;;;2.60;2.50;;;;;;;19.05;100.00;100210.69;105534;1260;66289;-44
2023/08/03 03:47:33;;;;;;;2.90;2.70;;;;;;;19.16;100.00;100223.20;105523;1258;72708;-45
2023/08/03 03:50:00;;;;;;;3.80;2.40;;;;;;;19.25;100.00;100235.45;105605;1260;60940;-44
2023/08/03 03:52:29;;;;;;;5.30;2.70;;;;;;;19.36;100.00;100255.95;105581;1257;60437;-44
2023/08/03 03:54:56;;;;;;;5.00;2.50;;;;;;;19.50;100.00;100284.58;105595;1260;74223;-44
2023/08/03 03:57:24;;;;;;;3.30;2.40;;;;;;;19.65;100.00;100312.55;105632;1260;64580;-45
2023/08/03 03:59:50;;;;;;;2.20;2.10;;;;;;;19.89;100.00;100344.60;105723;1261;71469;-44
2023/08/03 04:02:18;;;;;;;2.30;2.10;;;;;;;20.18;100.00;100383.88;105587;1260;61917;-44
2023/08/03 04:04:44;;;;;;;2.20;2.10;;;;;;;20.51;100.00;100425.92;105585;1257;60398;-44
2023/08/03 04:07:12;;;;;;;2.60;2.10;;;;;;;20.81;100.00;100492.14;105566;1260;73946;-44
2023/08/03 04:09:39;;;;;;;2.40;2.30;;;;;;;21.11;100.00;100568.59;105544;1257;65413;-45
2023/08/03 04:12:06;;;;;;;2.10;1.80;;;;;;;21.41;100.00;100623.76;105537;1257;72693;-44
2023/08/03 04:14:33;;;;;;;4.20;1.90;;;;;;;21.68;100.00;100638.80;105576;1261;60466;-45
2023/08/03 04:17:00;;;;;;;5.40;1.90;;;;;;;21.95;100.00;100601.66;105303;1257;60453;-44
2023/08/03 04:19:28;;;;;;;2.10;1.90;;;;;;;22.23;100.00;100528.19;105546;1257;73895;-44
2023/08/03 04:21:55;;;;;;;2.30;2.20;;;;;;;22.42;100.00;100370.63;105684;1260;66300;-44
2023/08/03 04:24:22;;;;;;;2.10;2.00;;;;;;;22.51;100.00;100177.95;105627;1258;72658;-44
2023/08/03 04:26:49;;;;;;;2.00;1.90;;;;;;;22.60;100.00;100043.84;105662;1260;61008;-44
2023/08/03 04:29:21;;;;;;;4.50;2.20;;;;;;;22.64;100.00;99942.46;105550;1257;60975;-45
2023/08/03 04:31:50;;;;;;;2.20;2.10;;;;;;;22.63;100.00;99883.20;105613;1258;74471;-45
2023/08/03 04:34:17;;;;;;;2.10;2.00;;;;;;;22.69;100.00;99866.24;105587;1258;65745;-45
2023/08/03 04:36:47;;;;;;;2.10;2.00;;;;;;;22.77;100.00;99834.31;105602;1256;72749;-45
2023/08/03 04:39:14;;;;;;;6.20;2.60;;;;;;;22.79;100.00;99802.30;105557;1262;60391;-45
2023/08/03 04:41:41;;;;;;;2.50;2.30;;;;;;;22.74;100.00;99780.12;105572;1257;60447;-45
2023/08/03 04:44:09;;;;;;;4.70;2.10;;;;;;;22.71;100.00;99789.66;105619;1260;73822;-45
2023/08/03 04:46:37;;;;;;;2.00;1.90;;;;;;;22.76;100.00;99804.19;105604;1258;65566;-45
2023/08/03 04:49:05;;;;;;;6.90;2.20;;;;;;;22.85;100.00;99800.64;105571;1260;73382;-45
2023/08/03 04:51:32;;;;;;;2.40;2.20;;;;;;;22.99;100.00;99794.58;105653;1256;62790;-45
2023/08/03 04:54:00;;;;;;;2.30;2.10;;;;;;;23.11;100.00;99771.10;105661;1263;60562;-46
2023/08/03 04:56:28;;;;;;;2.90;2.70;;;;;;;23.16;100.00;99756.81;105589;1260;73978;-45
2023/08/03 04:58:55;;;;;;;2.30;2.10;;;;;;;23.27;100.00;99756.31;105584;1260;65255;-45
2023/08/03 05:01:22;;;;;;;2.70;2.50;;;;;;;23.34;100.00;99760.23;105427;1261;72855;-46
2023/08/03 05:03:55;;;;;;;2.60;2.40;;;;;;;23.35;100.00;99753.90;105555;1260;60768;-44
2023/08/03 05:06:22;;;;;;;2.80;2.30;;;;;;;23.35;100.00;99757.41;105616;1257;60402;-45
2023/08/03 05:08:50;;;;;;;3.00;2.60;;;;;;;23.38;100.00;99761.17;105621;1257;72628;-45
2023/08/03 05:11:18;;;;;;;3.50;2.60;;;;;;;23.42;100.00;99762.83;105688;1260;66247;-45
2023/08/03 05:13:45;;;;;;;3.70;2.50;;;;;;;23.35;100.00;99766.73;105557;1261;72678;-45
2023/08/03 05:16:12;;;;;;;4.80;2.40;;;;;;;23.33;100.00;99777.80;105607;1260;60373;-46
2023/08/03 05:18:40;;;;;;;3.40;2.40;;;;;;;23.30;100.00;99781.08;105742;1256;60536;-45
2023/08/03 05:21:07;;;;;;;6.60;2.70;;;;;;;23.34;100.00;99783.73;105607;1259;73754;-46
2023/08/03 05:23:34;;;;;;;3.00;2.70;;;;;;;23.45;100.00;99793.67;105552;1257;65955;-46
2023/08/03 05:26:01;;;;;;;6.90;2.90;;;;;;;23.59;100.00;99787.63;105612;1260;72538;-47
2023/08/03 05:28:28;;;;;;;6.80;3.10;;;;;;;23.79;100.00;99781.71;105571;1260;60780;-45
2023/08/03 05:30:55;;;;;;;4.40;2.90;;;;;;;23.98;100.00;99776.95;105601;1257;60536;-46
2023/08/03 05:33:22;;;;;;;3.60;3.30;;;;;;;24.11;100.00;99776.92;105699;1257;73904;-45
2023/08/03 05:35:49;;;;;;;3.80;2.90;;;;;;;24.20;100.00;99780.38;105583;1260;65986;-45
2023/08/03 05:38:17;;;;;;;3.60;3.30;;;;;;;24.25;100.00;99788.98;105599;1260;71370;-46
2023/08/03 05:40:45;;;;;;;10.10;3.10;;;;;;;24.30;100.00;99789.27;105585;1260;60434;-45
2023/08/03 05:43:15;;;;;;;8.20;3.50;;;;;;;24.41;100.00;99789.66;105604;1260;60430;-45
2023/08/03 05:45:44;;;;;;;5.80;3.10;;;;;;;24.47;100.00;99799.79;105616;1260;73786;-45
2023/08/03 05:48:20;;;;;;;5.30;3.50;;;;;;;24.48;100.00;99809.73;105658;1260;66295;-46
2023/08/03 05:50:50;;;;;;;3.40;3.20;;;;;;;24.54;100.00;99815.15;105636;1257;72826;-46
2023/08/03 05:53:18;;;;;;;4.60;3.20;;;;;;;24.57;100.00;99822.14;105724;1262;60683;-45
2023/08/03 05:55:45;;;;;;;9.80;3.30;;;;;;;24.36;100.00;99829.23;105601;1257;60520;-46
2023/08/03 05:58:27;;;;;;;5.00;3.00;;;;;;;24.29;100.00;99825.08;105559;1260;73910;-46
2023/08/03 06:00:54;;;;;;;3.90;3.10;;;;;;;24.28;100.00;99824.72;105536;1262;65602;-46
2023/08/03 06:03:22;;;;;;;4.00;2.80;;;;;;;24.32;100.00;99818.83;105695;1257;72703;-46
2023/08/03 06:05:49;;;;;;;4.10;2.80;;;;;;;24.34;100.00;99820.08;105736;1260;60373;-46
2023/08/03 06:08:21;;;;;;;5.00;3.30;;;;;;;24.24;100.00;99824.84;105670;1257;60817;-46
2023/08/03 06:10:52;;;;;;;5.00;3.10;;;;;;;24.33;100.00;99822.67;105676;1260;74372;-46
2023/08/03 06:13:31;;;;;;;4.30;2.60;;;;;;;24.46;100.00;99821.71;105611;1257;65547;-47
2023/08/03 06:16:00;;;;;;;14.10;3.90;;;;;;;24.51;100.00;99818.65;105592;1257;72644;-44
2023/08/03 06:18:29;;;;;;;3.40;3.20;;;;;;;24.51;100.00;99816.73;105729;1260;61937;-45
2023/08/03 06:20:56;;;;;;;9.40;3.50;;;;;;;24.51;100.00;99816.89;105552;1258;60523;-45
2023/08/03 06:23:27;;;;;;;8.50;2.90;;;;;;;24.50;100.00;99814.96;105580;1257;72674;-46
2023/08/03 06:25:55;;;;;;;5.40;2.70;;;;;;;24.44;100.00;99820.88;105638;1260;64383;-46
2023/08/03 06:28:23;;;;;;;4.70;2.90;;;;;;;24.46;100.00;99819.05;105607;1257;72469;-45
2023/08/03 06:30:51;;;;;;;3.60;3.00;;;;;;;24.57;100.00;99814.73;105650;1260;60440;-45
2023/08/03 06:33:21;;;;;;;3.90;3.30;;;;;;;24.67;100.00;99811.37;105645;1257;60440;-44
2023/08/03 06:35:51;;;;;;;2.90;2.60;;;;;;;24.62;100.00;99824.59;105598;1257;72958;-46
2023/08/03 06:38:21;;;;;;;3.70;2.60;;;;;;;24.58;100.00;99828.47;105446;1260;65579;-46
2023/08/03 06:40:48;;;;;;;3.60;2.50;;;;;;;24.65;100.00;99825.04;105265;1257;72709;-49
2023/08/03 06:43:15;;;;;;;2.70;2.50;;;;;;;24.71;100.00;99835.21;105599;1257;61821;-48
2023/08/03 06:45:42;;;;;;;2.70;2.50;;;;;;;24.63;100.00;99853.07;105580;1260;60428;-47
2023/08/03 06:48:09;;;;;;;3.20;2.90;;;;;;;24.63;100.00;99851.27;105593;1259;74347;-47
2023/08/03 06:50:36;;;;;;;2.50;2.40;;;;;;;24.68;100.00;99846.11;105556;1263;65403;-46
2023/08/03 06:53:04;;;;;;;3.20;3.00;;;;;;;24.81;100.00;99847.13;105581;1260;72713;-45
2023/08/03 06:55:32;;;;;;;11.50;2.70;;;;;;;24.86;100.00;99859.73;105515;1263;61883;-46
2023/08/03 06:57:59;;;;;;;2.80;2.40;;;;;;;24.87;100.00;99872.16;105629;1268;60415;-46
2023/08/03 07:00:26;;;;;;;3.10;2.90;;;;;;;24.95;100.00;99875.55;105588;1256;73771;-46
2023/08/03 07:02:53;;;;;;;3.40;3.20;;;;;;;25.04;100.00;99872.83;105545;1257;65466;-46
2023/08/03 07:05:24;;;;;;;2.90;2.60;;;;;;;25.17;100.00;99873.23;105587;1260;72620;-46
2023/08/03 07:07:52;;;;;;;2.80;2.60;;;;;;;25.28;100.00;99876.52;105656;1260;61916;-46
2023/08/03 07:10:19;;;;;;;3.60;2.80;;;;;;;25.35;100.00;99890.34;105558;1258;61288;-46
2023/08/03 07:12:46;;;;;;;3.60;2.60;;;;;;;25.48;100.00;99901.20;105565;1260;73697;-46
2023/08/03 07:15:13;;;;;;;3.20;2.70;;;;;;;25.63;100.00;99900.96;105571;1260;65991;-46
2023/08/03 07:17:40;;;;;;;3.20;2.70;;;;;;;25.71;100.00;99922.78;105582;1260;73031;-46
2023/08/03 07:20:08;;;;;;;5.20;3.10;;;;;;;25.81;100.00;99941.15;105611;1269;60433;-46
2023/08/03 07:22:36;;;;;;;2.60;2.50;;;;;;;25.97;100.00;99950.86;105687;1260;60519;-45
2023/08/03 07:25:04;;;;;;;3.10;2.60;;;;;;;26.11;100.00;99964.60;105593;1257;74336;-46
2023/08/03 07:27:31;;;;;;;2.60;2.40;;;;;;;26.25;100.00;99973.83;105606;1260;65555;-46
2023/08/03 07:29:58;;;;;;;9.00;2.80;;;;;;;26.45;100.00;99992.10;105638;1260;72620;-46
2023/08/03 07:32:26;;;;;;;2.70;2.60;;;;;;;26.61;100.00;99999.52;105673;1260;61818;-46
2023/08/03 07:34:53;;;;;;;7.20;3.00;;;;;;;26.63;100.00;100023.88;105590;1257;60537;-46
2023/08/03 07:37:19;;;;;;;5.60;2.40;;;;;;;26.73;100.00;100029.42;105631;1260;74232;-46
2023/08/03 07:39:46;;;;;;;3.10;2.50;;;;;;;26.85;100.00;100043.46;105624;1260;65517;-46
2023/08/03 07:42:13;;;;;;;2.90;2.70;;;;;;;26.97;100.00;100059.41;105634;1257;72638;-46
2023/08/03 07:44:40;;;;;;;5.50;2.70;;;;;;;27.10;100.00;100052.67;105583;1260;60358;-45
2023/08/03 07:47:10;;;;;;;2.70;2.60;;;;;;;27.14;100.00;100066.07;105578;1262;60447;-46
2023/08/03 07:49:37;;;;;;;5.60;3.10;;;;;;;27.13;100.00;100073.75;105542;1260;73686;-46
2023/08/03 07:52:04;;;;;;;8.30;3.10;;;;;;;27.21;100.00;100094.52;105624;1260;65533;-46
2023/08/03 07:54:31;;;;;;;3.90;2.90;;;;;;;27.35;100.00;100077.23;105727;1260;72645;-46
2023/08/03 07:56:58;;;;;;;5.30;2.60;;;;;;;27.27;100.00;100060.23;105607;1259;60352;-46
2023/08/03 07:59:25;;;;;;;3.10;2.40;;;;;;;27.20;100.00;100085.66;105567;1258;60395;-46
2023/08/03 08:01:52;;;;;;;3.50;3.10;;;;;;;27.25;100.00;100094.10;105463;1258;73697;-46
2023/08/03 08:04:18;;;;;;;2.60;2.40;;;;;;;27.21;100.00;100094.15;105588;1257;65482;-46
2023/08/03 08:06:45;;;;;;;2.50;2.40;;;;;;;27.20;96.31;100080.73;105612;1258;72792;-47
2023/08/03 08:09:13;;;;;;;3.90;2.80;;;;;;;27.07;97.78;100098.05;105598;1260;60339;-45
2023/08/03 08:11:40;;;;;;;3.30;2.40;;;;;;;27.10;100.00;100132.65;105592;1258;60539;-45
2023/08/03 08:14:07;;;;;;;6.40;2.70;;;;;;;27.41;99.75;100089.59;105590;1262;73891;-45
2023/08/03 08:16:34;;;;;;;2.60;2.50;;;;;;;27.60;89.87;100056.15;105717;1260;65454;-45
2023/08/03 08:19:00;;;;;;;4.10;2.70;;;;;;;27.58;85.84;100070.83;105589;1260;72726;-46
2023/08/03 08:21:28;;;;;;;2.50;2.40;;;;;;;27.51;88.28;100090.95;105615;1260;60463;-46
2023/08/03 08:23:54;;;;;;;5.50;2.40;;;;;;;27.59;87.99;100088.42;105666;1257;60471;-46
2023/08/03 08:26:22;;;;;;;3.00;2.80;;;;;;;27.62;81.81;100067.91;105531;1258;73906;-45
2023/08/03 08:28:49;;;;;;;3.90;2.70;;;;;;;27.64;81.95;100087.63;105670;1260;65432;-44
2023/08/03 08:31:32;;;;;;;2.50;2.30;;;;;;;27.68;77.75;100059.57;105584;1257;72858;-45
2023/08/03 08:34:19;;;;;;;3.60;2.20;;;;;;;27.72;77.34;100072.78;105603;1261;60885;-45
2023/08/03 08:36:46;;;;;;;3.80;2.10;;;;;;;27.95;75.78;100058.15;105750;1256;60445;-46
2023/08/03 08:39:13;;;;;;;2.50;2.30;;;;;;;28.01;74.51;100057.84;105650;1263;73765;-46
2023/08/03 08:41:40;;;;;;;4.30;2.30;;;;;;;28.05;73.82;100058.67;105601;1258;65484;-45
2023/08/03 08:44:13;;;;;;;4.90;2.30;;;;;;;28.18;76.07;100092.89;105734;1260;73169;-45
2023/08/03 08:46:43;;;;;;;5.20;2.70;;;;;;;28.40;75.43;100071.70;105612;1260;60340;-46
2023/08/03 08:49:11;;;;;;;3.30;2.10;;;;;;;28.38;71.61;100039.42;105636;1260;60514;-45
2023/08/03 08:51:59;;;;;;;2.00;1.90;;;;;;;28.19;69.76;100033.11;105511;1262;73792;-46
2023/08/03 08:54:33;;;;;;;4.30;2.20;;;;;;;27.98;69.79;100048.37;105762;1260;65371;-45
2023/08/03 08:57:04;;;;;;;2.80;2.40;;;;;;;27.81;72.32;100104.94;105641;1260;72678;-47
2023/08/03 08:59:59;;;;;;;2.30;2.20;;;;;;;27.79;71.20;100081.39;105381;1260;60395;-47
2023/08/03 09:02:26;;;;;;;2.70;2.40;;;;;;;27.88;70.42;100067.89;105647;1260;60530;-46
2023/08/03 09:04:54;;;;;;;2.40;2.20;;;;;;;28.24;71.01;100069.57;105704;1259;74079;-46
2023/08/03 09:07:21;;;;;;;4.40;2.30;;;;;;;28.62;68.18;100021.45;105616;1260;65454;-45
2023/08/03 09:09:48;;;;;;;4.80;2.40;;;;;;;28.72;67.96;100028.27;105611;1260;73083;-46
2023/08/03 09:12:27;;;;;;;2.20;2.10;;;;;;;28.93;69.53;100067.29;105683;1261;60957;-46
2023/08/03 09:14:58;;;;;;;5.50;2.00;;;;;;;29.06;66.23;100012.52;105711;1269;60771;-46
2023/08/03 09:17:25;;;;;;;2.60;2.40;;;;;;;29.28;68.73;100071.70;105599;1260;73737;-45
2023/08/03 09:19:53;;;;;;;2.20;2.10;;;;;;;29.47;63.69;99965.72;105589;1260;65389;-46
2023/08/03 09:22:25;;;;;;;2.30;2.10;;;;;;;29.45;62.34;99951.29;105604;1260;72631;-48
2023/08/03 09:25:05;;;;;;;2.80;1.70;;;;;;;29.36;62.26;99973.16;105768;1260;60428;-45
2023/08/03 09:27:33;;;;;;;2.80;2.00;;;;;;;29.31;63.09;100004.98;105670;1257;60322;-46
2023/08/03 09:30:04;;;;;;;2.20;2.00;;;;;;;29.48;63.72;100025.45;105631;1260;73673;-46
2023/08/03 09:32:42;;;;;;;3.90;2.30;;;;;;;29.82;63.72;100023.67;105599;1260;65433;-46
2023/08/03 09:35:18;;;;;;;2.60;2.10;;;;;;;29.95;62.17;99984.52;105598;1260;72423;-46
2023/08/03 09:37:45;;;;;;;5.60;2.40;;;;;;;29.91;61.22;99966.35;105643;1260;60685;-46
2023/08/03 09:40:13;;;;;;;3.10;2.10;;;;;;;29.82;61.97;99998.15;105630;1257;60738;-46
2023/08/03 09:42:40;;;;;;;2.50;2.10;;;;;;;29.79;61.13;99984.25;105584;1263;73711;-45
2023/08/03 09:45:08;;;;;;;2.80;2.60;;;;;;;29.78;60.65;99978.58;105633;1260;65254;-46
2023/08/03 09:47:55;;;;;;;3.60;2.20;;;;;;;29.68;59.44;99948.71;105627;1257;72648;-46
2023/08/03 09:50:23;;;;;;;2.20;2.10;;;;;;;29.61;61.76;100029.58;105606;1269;60435;-47
2023/08/03 09:52:49;;;;;;;4.40;2.30;;;;;;;29.68;61.61;100023.89;105765;1262;60635;-46
2023/08/03 09:55:23;;;;;;;2.20;2.10;;;;;;;29.85;60.09;99973.18;105633;1257;73655;-46
2023/08/03 09:58:08;;;;;;;2.80;2.50;;;;;;;29.72;58.70;99940.08;105662;1261;64218;-46
2023/08/03 10:00:35;;;;;;;2.50;2.30;;;;;;;29.58;59.23;99969.50;105583;1260;72636;-45
2023/08/03 10:03:10;;;;;;;2.20;2.10;;;;;;;29.48;58.66;99965.90;105683;1271;60812;-46
2023/08/03 10:05:40;;;;;;;2.80;2.50;;;;;;;29.45;60.17;100016.13;105616;1257;60520;-46
2023/08/03 10:08:22;;;;;;;2.50;2.30;;;;;;;29.45;59.67;99998.94;105601;1257;73240;-46
2023/08/03 10:10:49;;;;;;;2.40;2.30;;;;;;;29.30;61.08;100036.48;105611;1258;64672;-46
2023/08/03 10:13:17;;;;;;;2.40;2.20;;;;;;;29.29;61.98;100057.60;105654;1260;71412;-46
2023/08/03 10:15:44;;;;;;;2.50;2.40;;;;;;;29.59;63.20;100084.92;105764;1257;60510;-46
2023/08/03 10:18:12;;;;;;;2.60;2.00;;;;;;;29.94;63.47;100074.81;105643;1257;60692;-46
2023/08/03 10:20:39;;;;;;;2.30;2.10;;;;;;;30.18;60.44;99983.04;105530;1264;73783;-45
2023/08/03 10:23:06;;;;;;;2.20;2.00;;;;;;;30.07;60.09;99982.81;105655;1262;66131;-45
2023/08/03 10:25:33;;;;;;;2.60;2.10;;;;;;;29.91;60.23;100007.02;105676;1257;72982;-45
2023/08/03 10:28:13;;;;;;;2.80;2.40;;;;;;;29.95;61.18;100035.27;105553;1260;60340;-46
2023/08/03 10:31:07;;;;;;;3.10;2.40;;;;;;;30.19;58.48;99937.38;105886;1254;60421;-45
2023/08/03 10:33:46;;;;;;;5.50;2.60;;;;;;;30.25;58.41;99957.34;105882;1256;73816;-46
2023/08/03 10:36:29;;;;;;;2.20;2.00;;;;;;;30.21;58.37;99958.72;105857;1256;65452;-45
2023/08/03 10:39:03;;;;;;;2.20;2.10;;;;;;;30.42;59.07;99987.38;105855;1252;72596;-45
2023/08/03 10:41:37;;;;;;;7.50;2.20;;;;;;;30.51;58.47;99968.93;105822;1257;60389;-45
2023/08/03 10:44:08;;;;;;;2.20;2.00;;;;;;;30.57;59.92;100024.30;105939;1253;60485;-45
2023/08/03 10:46:37;;;;;;;2.40;1.90;;;;;;;30.79;58.20;99963.04;105878;1255;74279;-46
2023/08/03 10:49:25;;;;;;;2.40;2.30;;;;;;;30.73;57.01;99924.48;105888;1257;64034;-45
2023/08/03 10:51:53;;;;;;;3.10;2.20;;;;;;;30.40;56.75;99926.23;105755;1254;72593;-46
2023/08/03 10:54:27;;;;;;;3.30;2.50;;;;;;;30.09;59.54;100040.00;105922;1256;60387;-46
2023/08/03 10:57:06;;;;;;;2.50;2.30;;;;;;;30.19;59.71;100043.23;105900;1254;60584;-45
2023/08/03 10:59:59;;;;;;;3.10;2.50;;;;;;;30.35;59.01;100016.34;105870;1257;73797;-46
2023/08/03 11:02:28;;;;;;;2.20;2.00;;;;;;;30.21;58.36;99998.34;105806;1254;65385;-46
2023/08/03 11:04:57;;;;;;;4.00;2.40;;;;;;;30.05;57.45;99973.71;105758;1255;279866;-45
2023/08/03 11:10:10;;;;;;;2.50;2.30;;;;;;;30.07;57.46;99981.31;102488;1295;601019;-46
2023/08/03 11:12:38;;;;;;;3.50;2.50;;;;;;;29.96;58.57;100026.20;104860;1269;60086;-47
2023/08/03 11:15:07;;;;;;;2.70;2.50;;;;;;;29.98;60.33;100084.88;105742;1254;60018;-48
2023/08/03 11:17:35;;;;;;;7.70;2.90;;;;;;;30.08;61.33;100103.63;105750;1255;72220;-47
2023/08/03 11:20:03;;;;;;;2.80;2.60;;;;;;;30.16;60.25;100068.27;105810;1258;65448;-46
2023/08/03 11:22:31;;;;;;;4.30;2.70;;;;;;;30.24;61.11;100088.91;105584;1254;333018;-46
2023/08/03 11:25:03;;;;;;;7.30;2.80;;;;;;;30.24;59.39;100028.23;105987;1256;60287;-46